sensor_id;sensor_type;location;lat;lon;timestamp;temperature;humidity
15409;DHT22;7803;48.130;13.788;2023-05-16T00:00:46;23.00;85.00
15409;DHT22;7803;48.130;13.788;2023-05-16T00:03:48;23.00;85.00
15409;DHT22;7803;48.130;13.788;2023-05-16T00:06:51;23.00;85.00
15409;DHT22;7803;48.130;13.788;2023-05-16T00:09:54;23.00;85.00
15409;DHT22;7803;48.130;13.788;2023-05-16T00:12:56;23.00;85.00
15409;DHT22;7803;48.130;13.788;2023-05-16T00:16:01;23.00;85.00
15409;DHT22;7803;48.130;13.788;2023-05-16T00:19:04;23.00;85.00
15409;DHT22;7803;48.130;13.788;2023-05-16T00:22:08;23.00;85.00
15409;DHT22;7803;48.130;13.788;2023-05-16T00:25:10;23.00;85.00
15409;DHT22;7803;48.130;13.788;2023-05-16T00:28:13;23.00;85.00
15409;DHT22;7803;48.130;13.788;2023-05-16T00:31:15;23.00;85.00
15409;DHT22;7803;48.130;13.788;2023-05-16T00:34:17;23.00;85.00
15409;DHT22;7803;48.130;13.788;2023-05-16T00:37:22;23.00;85.00
15409;DHT22;7803;48.130;13.788;2023-05-16T00:40:24;22.90;84.90
15409;DHT22;7803;48.130;13.788;2023-05-16T00:43:26;23.00;84.90
15409;DHT22;7803;48.130;13.788;2023-05-16T00:46:28;23.00;84.90
15409;DHT22;7803;48.130;13.788;2023-05-16T00:49:30;23.00;84.90
15409;DHT22;7803;48.130;13.788;2023-05-16T00:52:33;23.00;84.90
15409;DHT22;7803;48.130;13.788;2023-05-16T00:55:36;22.90;84.90
15409;DHT22;7803;48.130;13.788;2023-05-16T00:58:39;23.00;85.00
15409;DHT22;7803;48.130;13.788;2023-05-16T01:01:41;22.90;84.90
15409;DHT22;7803;48.130;13.788;2023-05-16T01:04:45;22.90;84.90
15409;DHT22;7803;48.130;13.788;2023-05-16T01:07:50;22.90;84.90
15409;DHT22;7803;48.130;13.788;2023-05-16T01:11:00;22.90;84.90
15409;DHT22;7803;48.130;13.788;2023-05-16T01:14:11;22.90;84.90
15409;DHT22;7803;48.130;13.788;2023-05-16T01:17:20;22.90;84.80
15409;DHT22;7803;48.130;13.788;2023-05-16T01:20:41;22.90;84.80
15409;DHT22;7803;48.130;13.788;2023-05-16T01:23:54;22.90;84.80
15409;DHT22;7803;48.130;13.788;2023-05-16T01:27:04;22.90;84.80
15409;DHT22;7803;48.130;13.788;2023-05-16T01:30:14;22.90;84.80
15409;DHT22;7803;48.130;13.788;2023-05-16T01:33:16;22.90;84.80
15409;DHT22;7803;48.130;13.788;2023-05-16T01:36:24;22.90;84.80
15409;DHT22;7803;48.130;13.788;2023-05-16T01:39:31;22.90;84.90
15409;DHT22;7803;48.130;13.788;2023-05-16T01:42:41;22.80;84.80
15409;DHT22;7803;48.130;13.788;2023-05-16T01:45:50;22.90;84.90
15409;DHT22;7803;48.130;13.788;2023-05-16T01:48:55;22.90;84.80
15409;DHT22;7803;48.130;13.788;2023-05-16T01:52:00;22.80;84.70
15409;DHT22;7803;48.130;13.788;2023-05-16T01:55:10;22.90;85.70
15409;DHT22;7803;48.130;13.788;2023-05-16T01:58:20;22.90;84.80
15409;DHT22;7803;48.130;13.788;2023-05-16T02:01:23;22.80;84.70
15409;DHT22;7803;48.130;13.788;2023-05-16T02:04:25;22.80;84.70
15409;DHT22;7803;48.130;13.788;2023-05-16T02:07:27;22.90;84.80
15409;DHT22;7803;48.130;13.788;2023-05-16T02:10:29;22.90;84.80
15409;DHT22;7803;48.130;13.788;2023-05-16T02:13:32;22.80;84.70
15409;DHT22;7803;48.130;13.788;2023-05-16T02:16:34;22.90;84.90
15409;DHT22;7803;48.130;13.788;2023-05-16T02:19:36;22.80;84.70
15409;DHT22;7803;48.130;13.788;2023-05-16T02:22:38;22.80;84.80
15409;DHT22;7803;48.130;13.788;2023-05-16T02:25:42;22.80;84.70
15409;DHT22;7803;48.130;13.788;2023-05-16T02:28:45;22.80;84.70
15409;DHT22;7803;48.130;13.788;2023-05-16T02:31:49;22.80;84.70
15409;DHT22;7803;48.130;13.788;2023-05-16T02:34:51;22.80;84.70
15409;DHT22;7803;48.130;13.788;2023-05-16T02:37:53;22.80;84.70
15409;DHT22;7803;48.130;13.788;2023-05-16T02:40:55;22.80;84.70
15409;DHT22;7803;48.130;13.788;2023-05-16T02:43:58;22.80;84.70
15409;DHT22;7803;48.130;13.788;2023-05-16T02:47:00;22.80;84.70
15409;DHT22;7803;48.130;13.788;2023-05-16T02:50:03;22.80;84.70
15409;DHT22;7803;48.130;13.788;2023-05-16T02:53:05;22.80;84.70
15409;DHT22;7803;48.130;13.788;2023-05-16T02:56:07;22.80;84.70
15409;DHT22;7803;48.130;13.788;2023-05-16T02:59:11;22.80;84.70
15409;DHT22;7803;48.130;13.788;2023-05-16T03:02:13;22.80;84.70
15409;DHT22;7803;48.130;13.788;2023-05-16T03:05:15;22.80;84.70
15409;DHT22;7803;48.130;13.788;2023-05-16T03:08:18;22.80;84.70
15409;DHT22;7803;48.130;13.788;2023-05-16T03:11:20;22.80;84.70
15409;DHT22;7803;48.130;13.788;2023-05-16T03:14:23;22.80;84.70
15409;DHT22;7803;48.130;13.788;2023-05-16T03:17:25;22.80;84.70
15409;DHT22;7803;48.130;13.788;2023-05-16T03:20:28;22.70;84.60
15409;DHT22;7803;48.130;13.788;2023-05-16T03:23:30;22.70;84.60
15409;DHT22;7803;48.130;13.788;2023-05-16T03:26:32;22.70;84.60
15409;DHT22;7803;48.130;13.788;2023-05-16T03:29:35;22.70;84.60
15409;DHT22;7803;48.130;13.788;2023-05-16T03:32:37;22.70;84.60
15409;DHT22;7803;48.130;13.788;2023-05-16T03:35:39;22.70;84.50
15409;DHT22;7803;48.130;13.788;2023-05-16T03:38:41;22.70;84.50
15409;DHT22;7803;48.130;13.788;2023-05-16T03:41:43;22.70;84.50
15409;DHT22;7803;48.130;13.788;2023-05-16T03:44:47;22.70;84.40
15409;DHT22;7803;48.130;13.788;2023-05-16T03:47:49;22.70;84.40
15409;DHT22;7803;48.130;13.788;2023-05-16T03:50:51;22.70;84.40
15409;DHT22;7803;48.130;13.788;2023-05-16T03:53:53;22.80;84.40
15409;DHT22;7803;48.130;13.788;2023-05-16T03:56:54;22.80;84.40
15409;DHT22;7803;48.130;13.788;2023-05-16T03:59:58;22.70;84.40
15409;DHT22;7803;48.130;13.788;2023-05-16T04:03:00;22.80;84.30
15409;DHT22;7803;48.130;13.788;2023-05-16T04:06:03;22.80;84.30
15409;DHT22;7803;48.130;13.788;2023-05-16T04:09:05;22.80;84.40
15409;DHT22;7803;48.130;13.788;2023-05-16T04:12:07;22.90;84.40
15409;DHT22;7803;48.130;13.788;2023-05-16T04:15:11;22.90;84.20
15409;DHT22;7803;48.130;13.788;2023-05-16T04:18:13;22.80;84.10
15409;DHT22;7803;48.130;13.788;2023-05-16T04:21:15;22.90;84.20
15409;DHT22;7803;48.130;13.788;2023-05-16T04:24:17;22.90;84.10
15409;DHT22;7803;48.130;13.788;2023-05-16T04:27:19;22.90;84.00
15409;DHT22;7803;48.130;13.788;2023-05-16T04:30:22;22.90;84.00
15409;DHT22;7803;48.130;13.788;2023-05-16T04:33:24;22.90;84.00
15409;DHT22;7803;48.130;13.788;2023-05-16T04:36:26;22.90;84.00
15409;DHT22;7803;48.130;13.788;2023-05-16T04:39:29;22.90;83.90
15409;DHT22;7803;48.130;13.788;2023-05-16T04:42:31;22.90;84.50
15409;DHT22;7803;48.130;13.788;2023-05-16T04:45:35;22.90;84.00
15409;DHT22;7803;48.130;13.788;2023-05-16T04:48:37;22.90;83.90
15409;DHT22;7803;48.130;13.788;2023-05-16T04:51:39;22.90;83.90
15409;DHT22;7803;48.130;13.788;2023-05-16T04:54:41;23.00;84.00
15409;DHT22;7803;48.130;13.788;2023-05-16T04:57:43;22.90;83.80
15409;DHT22;7803;48.130;13.788;2023-05-16T05:00:47;22.90;83.90
15409;DHT22;7803;48.130;13.788;2023-05-16T05:03:49;22.90;83.90
15409;DHT22;7803;48.130;13.788;2023-05-16T05:06:51;22.90;84.70
15409;DHT22;7803;48.130;13.788;2023-05-16T05:09:53;22.90;85.60
15409;DHT22;7803;48.130;13.788;2023-05-16T05:12:56;22.90;85.00
15409;DHT22;7803;48.130;13.788;2023-05-16T05:16:00;23.00;84.90
15409;DHT22;7803;48.130;13.788;2023-05-16T05:19:04;22.90;84.80
15409;DHT22;7803;48.130;13.788;2023-05-16T05:22:06;23.00;84.90
15409;DHT22;7803;48.130;13.788;2023-05-16T05:25:08;23.00;84.80
15409;DHT22;7803;48.130;13.788;2023-05-16T05:28:10;23.00;84.90
15409;DHT22;7803;48.130;13.788;2023-05-16T05:31:14;23.10;84.90
15409;DHT22;7803;48.130;13.788;2023-05-16T05:34:16;23.10;84.90
15409;DHT22;7803;48.130;13.788;2023-05-16T05:37:18;23.10;84.70
15409;DHT22;7803;48.130;13.788;2023-05-16T05:40:20;23.10;84.70
15409;DHT22;7803;48.130;13.788;2023-05-16T05:43:22;23.10;84.60
15409;DHT22;7803;48.130;13.788;2023-05-16T05:46:26;23.10;84.50
15409;DHT22;7803;48.130;13.788;2023-05-16T05:49:28;23.10;84.50
15409;DHT22;7803;48.130;13.788;2023-05-16T05:52:30;23.10;84.50
15409;DHT22;7803;48.130;13.788;2023-05-16T05:55:32;23.10;84.40
15409;DHT22;7803;48.130;13.788;2023-05-16T05:58:34;23.10;84.40
15409;DHT22;7803;48.130;13.788;2023-05-16T06:01:38;23.10;84.40
15409;DHT22;7803;48.130;13.788;2023-05-16T06:04:40;23.10;84.30
15409;DHT22;7803;48.130;13.788;2023-05-16T06:07:42;23.10;84.30
15409;DHT22;7803;48.130;13.788;2023-05-16T06:10:45;23.10;84.30
15409;DHT22;7803;48.130;13.788;2023-05-16T06:13:47;23.10;84.30
15409;DHT22;7803;48.130;13.788;2023-05-16T06:16:50;23.10;84.40
15409;DHT22;7803;48.130;13.788;2023-05-16T06:19:52;23.20;84.30
15409;DHT22;7803;48.130;13.788;2023-05-16T06:22:54;23.10;84.30
15409;DHT22;7803;48.130;13.788;2023-05-16T06:25:56;23.20;84.40
15409;DHT22;7803;48.130;13.788;2023-05-16T06:28:58;23.20;84.40
15409;DHT22;7803;48.130;13.788;2023-05-16T06:32:02;23.20;84.30
15409;DHT22;7803;48.130;13.788;2023-05-16T06:35:04;23.20;84.60
15409;DHT22;7803;48.130;13.788;2023-05-16T06:38:06;23.20;84.80
15409;DHT22;7803;48.130;13.788;2023-05-16T06:41:08;23.20;85.10
15409;DHT22;7803;48.130;13.788;2023-05-16T06:44:10;23.20;85.50
15409;DHT22;7803;48.130;13.788;2023-05-16T06:47:14;23.20;85.80
15409;DHT22;7803;48.130;13.788;2023-05-16T06:50:16;23.20;86.10
15409;DHT22;7803;48.130;13.788;2023-05-16T06:53:18;23.20;86.60
15409;DHT22;7803;48.130;13.788;2023-05-16T06:56:20;23.20;86.90
15409;DHT22;7803;48.130;13.788;2023-05-16T06:59:23;23.20;87.30
15409;DHT22;7803;48.130;13.788;2023-05-16T07:02:26;23.20;87.60
15409;DHT22;7803;48.130;13.788;2023-05-16T07:05:29;23.30;87.90
15409;DHT22;7803;48.130;13.788;2023-05-16T07:08:31;23.30;88.10
15409;DHT22;7803;48.130;13.788;2023-05-16T07:11:33;23.20;88.20
15409;DHT22;7803;48.130;13.788;2023-05-16T07:14:34;23.20;88.30
15409;DHT22;7803;48.130;13.788;2023-05-16T07:17:38;23.20;88.50
15409;DHT22;7803;48.130;13.788;2023-05-16T07:20:40;23.30;88.70
15409;DHT22;7803;48.130;13.788;2023-05-16T07:23:42;23.30;88.90
15409;DHT22;7803;48.130;13.788;2023-05-16T07:26:44;23.30;88.90
15409;DHT22;7803;48.130;13.788;2023-05-16T07:29:46;23.30;89.00
15409;DHT22;7803;48.130;13.788;2023-05-16T07:32:49;23.30;89.10
15409;DHT22;7803;48.130;13.788;2023-05-16T07:35:51;23.30;89.10
15409;DHT22;7803;48.130;13.788;2023-05-16T07:38:53;23.30;89.30
15409;DHT22;7803;48.130;13.788;2023-05-16T07:41:55;23.30;89.30
15409;DHT22;7803;48.130;13.788;2023-05-16T07:44:57;23.30;89.30
15409;DHT22;7803;48.130;13.788;2023-05-16T07:48:01;23.30;89.30
15409;DHT22;7803;48.130;13.788;2023-05-16T07:51:03;23.30;89.30
15409;DHT22;7803;48.130;13.788;2023-05-16T07:54:05;23.30;89.40
15409;DHT22;7803;48.130;13.788;2023-05-16T07:57:07;23.30;89.40
15409;DHT22;7803;48.130;13.788;2023-05-16T08:00:10;23.30;89.60
15409;DHT22;7803;48.130;13.788;2023-05-16T08:03:13;23.30;89.70
15409;DHT22;7803;48.130;13.788;2023-05-16T08:06:15;23.30;90.00
15409;DHT22;7803;48.130;13.788;2023-05-16T08:09:17;23.40;90.00
15409;DHT22;7803;48.130;13.788;2023-05-16T08:12:20;23.40;89.80
15409;DHT22;7803;48.130;13.788;2023-05-16T08:15:22;23.40;89.80
15409;DHT22;7803;48.130;13.788;2023-05-16T08:18:25;23.40;89.80
15409;DHT22;7803;48.130;13.788;2023-05-16T08:21:27;23.40;89.80
15409;DHT22;7803;48.130;13.788;2023-05-16T08:24:30;23.40;89.70
15409;DHT22;7803;48.130;13.788;2023-05-16T08:27:32;23.40;89.70
15409;DHT22;7803;48.130;13.788;2023-05-16T08:30:34;23.40;89.70
15409;DHT22;7803;48.130;13.788;2023-05-16T08:33:37;23.40;89.60
15409;DHT22;7803;48.130;13.788;2023-05-16T08:36:39;23.40;89.60
15409;DHT22;7803;48.130;13.788;2023-05-16T08:39:41;23.40;89.70
15409;DHT22;7803;48.130;13.788;2023-05-16T08:42:43;23.40;89.20
15409;DHT22;7803;48.130;13.788;2023-05-16T08:45:45;23.40;89.50
15409;DHT22;7803;48.130;13.788;2023-05-16T08:48:51;23.40;89.80
15409;DHT22;7803;48.130;13.788;2023-05-16T08:51:56;23.40;90.00
15409;DHT22;7803;48.130;13.788;2023-05-16T08:55:01;23.40;90.00
15409;DHT22;7803;48.130;13.788;2023-05-16T08:58:07;23.40;90.10
15409;DHT22;7803;48.130;13.788;2023-05-16T09:01:10;23.40;90.20
15409;DHT22;7803;48.130;13.788;2023-05-16T09:04:14;23.40;90.30
15409;DHT22;7803;48.130;13.788;2023-05-16T09:07:16;23.40;90.30
15409;DHT22;7803;48.130;13.788;2023-05-16T09:10:19;23.40;90.40
15409;DHT22;7803;48.130;13.788;2023-05-16T09:13:21;23.40;90.20
15409;DHT22;7803;48.130;13.788;2023-05-16T09:16:23;23.50;90.30
15409;DHT22;7803;48.130;13.788;2023-05-16T09:19:26;23.50;90.40
15409;DHT22;7803;48.130;13.788;2023-05-16T09:22:33;23.50;90.30
15409;DHT22;7803;48.130;13.788;2023-05-16T09:25:35;23.50;90.20
15409;DHT22;7803;48.130;13.788;2023-05-16T09:28:37;23.50;90.20
15409;DHT22;7803;48.130;13.788;2023-05-16T09:31:40;23.50;90.20
15409;DHT22;7803;48.130;13.788;2023-05-16T09:34:44;23.50;90.20
15409;DHT22;7803;48.130;13.788;2023-05-16T09:37:49;23.50;90.20
15409;DHT22;7803;48.130;13.788;2023-05-16T09:40:52;23.50;90.10
15409;DHT22;7803;48.130;13.788;2023-05-16T09:43:54;23.60;90.10
15409;DHT22;7803;48.130;13.788;2023-05-16T09:46:57;23.50;90.00
15409;DHT22;7803;48.130;13.788;2023-05-16T09:50:00;23.50;90.00
15409;DHT22;7803;48.130;13.788;2023-05-16T09:53:02;23.60;90.00
15409;DHT22;7803;48.130;13.788;2023-05-16T09:56:06;23.50;90.00
15409;DHT22;7803;48.130;13.788;2023-05-16T09:59:09;23.50;90.00
15409;DHT22;7803;48.130;13.788;2023-05-16T10:02:12;23.60;90.10
15409;DHT22;7803;48.130;13.788;2023-05-16T10:05:16;23.50;90.70
15409;DHT22;7803;48.130;13.788;2023-05-16T10:08:19;23.60;91.20
15409;DHT22;7803;48.130;13.788;2023-05-16T10:11:22;23.60;91.00
15409;DHT22;7803;48.130;13.788;2023-05-16T10:14:25;23.60;90.90
15409;DHT22;7803;48.130;13.788;2023-05-16T10:17:30;23.60;91.20
15409;DHT22;7803;48.130;13.788;2023-05-16T10:20:34;23.60;91.10
15409;DHT22;7803;48.130;13.788;2023-05-16T10:23:37;23.60;91.00
15409;DHT22;7803;48.130;13.788;2023-05-16T10:26:42;23.60;90.80
15409;DHT22;7803;48.130;13.788;2023-05-16T10:29:44;23.60;90.70
15409;DHT22;7803;48.130;13.788;2023-05-16T10:32:46;23.60;90.60
15409;DHT22;7803;48.130;13.788;2023-05-16T10:35:52;23.60;90.60
15409;DHT22;7803;48.130;13.788;2023-05-16T10:38:54;23.60;90.70
15409;DHT22;7803;48.130;13.788;2023-05-16T10:41:57;23.70;91.30
15409;DHT22;7803;48.130;13.788;2023-05-16T10:45:13;23.70;90.70
15409;DHT22;7803;48.130;13.788;2023-05-16T10:48:16;23.70;90.60
15409;DHT22;7803;48.130;13.788;2023-05-16T10:51:37;23.70;90.60
15409;DHT22;7803;48.130;13.788;2023-05-16T10:54:41;23.70;90.40
15409;DHT22;7803;48.130;13.788;2023-05-16T10:57:43;23.70;90.00
15409;DHT22;7803;48.130;13.788;2023-05-16T11:00:46;23.70;89.20
15409;DHT22;7803;48.130;13.788;2023-05-16T11:04:04;23.70;88.10
15409;DHT22;7803;48.130;13.788;2023-05-16T11:07:08;23.70;87.10
15409;DHT22;7803;48.130;13.788;2023-05-16T11:10:15;23.70;86.90
15409;DHT22;7803;48.130;13.788;2023-05-16T11:13:23;23.70;87.10
15409;DHT22;7803;48.130;13.788;2023-05-16T11:16:29;23.60;87.10
15409;DHT22;7803;48.130;13.788;2023-05-16T11:19:34;23.70;87.10
15409;DHT22;7803;48.130;13.788;2023-05-16T11:22:39;23.70;87.10
15409;DHT22;7803;48.130;13.788;2023-05-16T11:25:41;23.60;87.10
15409;DHT22;7803;48.130;13.788;2023-05-16T11:28:48;23.70;87.20
15409;DHT22;7803;48.130;13.788;2023-05-16T11:31:51;23.70;87.10
15409;DHT22;7803;48.130;13.788;2023-05-16T11:34:53;23.70;87.20
15409;DHT22;7803;48.130;13.788;2023-05-16T11:37:57;23.70;88.10
15409;DHT22;7803;48.130;13.788;2023-05-16T11:41:03;23.70;87.20
15409;DHT22;7803;48.130;13.788;2023-05-16T11:44:06;23.70;87.30
15409;DHT22;7803;48.130;13.788;2023-05-16T11:47:08;23.70;87.40
15409;DHT22;7803;48.130;13.788;2023-05-16T11:50:12;23.60;87.20
15409;DHT22;7803;48.130;13.788;2023-05-16T11:53:15;23.70;87.30
15409;DHT22;7803;48.130;13.788;2023-05-16T11:56:17;23.70;87.40
15409;DHT22;7803;48.130;13.788;2023-05-16T11:59:21;23.70;87.40
15409;DHT22;7803;48.130;13.788;2023-05-16T12:02:23;23.70;87.40
15409;DHT22;7803;48.130;13.788;2023-05-16T12:05:25;23.70;87.40
15409;DHT22;7803;48.130;13.788;2023-05-16T12:08:29;23.70;87.40
15409;DHT22;7803;48.130;13.788;2023-05-16T12:11:32;23.70;87.40
15409;DHT22;7803;48.130;13.788;2023-05-16T12:14:34;23.70;87.40
15409;DHT22;7803;48.130;13.788;2023-05-16T12:17:37;23.60;87.30
15409;DHT22;7803;48.130;13.788;2023-05-16T12:20:40;23.60;87.40
15409;DHT22;7803;48.130;13.788;2023-05-16T12:23:43;23.70;87.90
15409;DHT22;7803;48.130;13.788;2023-05-16T12:26:45;23.70;88.70
15409;DHT22;7803;48.130;13.788;2023-05-16T12:29:47;23.60;89.10
15409;DHT22;7803;48.130;13.788;2023-05-16T12:32:57;23.60;89.40
15409;DHT22;7803;48.130;13.788;2023-05-16T12:35:59;23.60;89.90
15409;DHT22;7803;48.130;13.788;2023-05-16T12:39:05;23.60;90.00
15409;DHT22;7803;48.130;13.788;2023-05-16T12:42:10;23.60;90.20
15409;DHT22;7803;48.130;13.788;2023-05-16T12:45:16;23.60;90.30
15409;DHT22;7803;48.130;13.788;2023-05-16T12:48:18;23.60;90.30
15409;DHT22;7803;48.130;13.788;2023-05-16T12:51:20;23.60;90.30
15409;DHT22;7803;48.130;13.788;2023-05-16T12:54:23;23.60;90.50
15409;DHT22;7803;48.130;13.788;2023-05-16T12:57:25;23.60;90.70
15409;DHT22;7803;48.130;13.788;2023-05-16T13:00:28;23.60;90.50
15409;DHT22;7803;48.130;13.788;2023-05-16T13:03:31;23.60;90.30
15409;DHT22;7803;48.130;13.788;2023-05-16T13:06:33;23.60;90.20
15409;DHT22;7803;48.130;13.788;2023-05-16T13:09:39;23.60;90.30
15409;DHT22;7803;48.130;13.788;2023-05-16T13:12:41;23.60;90.40
15409;DHT22;7803;48.130;13.788;2023-05-16T13:15:43;23.60;90.60
15409;DHT22;7803;48.130;13.788;2023-05-16T13:18:45;23.60;90.60
15409;DHT22;7803;48.130;13.788;2023-05-16T13:21:47;23.50;90.60
15409;DHT22;7803;48.130;13.788;2023-05-16T13:24:50;23.60;90.70
15409;DHT22;7803;48.130;13.788;2023-05-16T13:27:52;23.60;90.70
15409;DHT22;7803;48.130;13.788;2023-05-16T13:30:54;23.60;90.70
15409;DHT22;7803;48.130;13.788;2023-05-16T13:33:56;23.60;90.80
15409;DHT22;7803;48.130;13.788;2023-05-16T13:36:58;23.60;90.70
15409;DHT22;7803;48.130;13.788;2023-05-16T13:40:03;23.60;90.70
15409;DHT22;7803;48.130;13.788;2023-05-16T13:43:05;23.60;90.70
15409;DHT22;7803;48.130;13.788;2023-05-16T13:46:07;23.60;90.60
15409;DHT22;7803;48.130;13.788;2023-05-16T13:49:09;23.60;90.60
15409;DHT22;7803;48.130;13.788;2023-05-16T13:52:11;23.60;90.60
15409;DHT22;7803;48.130;13.788;2023-05-16T13:55:14;23.60;90.60
15409;DHT22;7803;48.130;13.788;2023-05-16T13:58:16;23.60;90.60
15409;DHT22;7803;48.130;13.788;2023-05-16T14:01:19;23.60;90.60
15409;DHT22;7803;48.130;13.788;2023-05-16T14:04:21;23.70;90.60
15409;DHT22;7803;48.130;13.788;2023-05-16T14:07:23;23.60;90.50
15409;DHT22;7803;48.130;13.788;2023-05-16T14:10:26;23.60;90.50
15409;DHT22;7803;48.130;13.788;2023-05-16T14:13:28;23.60;90.50
15409;DHT22;7803;48.130;13.788;2023-05-16T14:16:30;23.60;90.50
15409;DHT22;7803;48.130;13.788;2023-05-16T14:19:33;23.60;90.50
15409;DHT22;7803;48.130;13.788;2023-05-16T14:22:36;23.60;90.50
15409;DHT22;7803;48.130;13.788;2023-05-16T14:25:40;23.70;90.50
15409;DHT22;7803;48.130;13.788;2023-05-16T14:28:42;23.60;90.50
15409;DHT22;7803;48.130;13.788;2023-05-16T14:31:44;23.60;90.50
15409;DHT22;7803;48.130;13.788;2023-05-16T14:34:46;23.70;90.50
15409;DHT22;7803;48.130;13.788;2023-05-16T14:37:48;23.70;90.50
15409;DHT22;7803;48.130;13.788;2023-05-16T14:40:52;23.60;90.40
15409;DHT22;7803;48.130;13.788;2023-05-16T14:43:54;23.60;90.40
15409;DHT22;7803;48.130;13.788;2023-05-16T14:46:56;23.60;90.40
15409;DHT22;7803;48.130;13.788;2023-05-16T14:49:59;23.60;90.40
15409;DHT22;7803;48.130;13.788;2023-05-16T14:53:01;23.60;90.40
15409;DHT22;7803;48.130;13.788;2023-05-16T14:56:05;23.60;90.40
15409;DHT22;7803;48.130;13.788;2023-05-16T14:59:07;23.70;90.30
15409;DHT22;7803;48.130;13.788;2023-05-16T15:02:09;23.70;90.40
15409;DHT22;7803;48.130;13.788;2023-05-16T15:05:11;23.60;90.40
15409;DHT22;7803;48.130;13.788;2023-05-16T15:08:13;23.60;90.40
15409;DHT22;7803;48.130;13.788;2023-05-16T15:11:17;23.60;90.40
15409;DHT22;7803;48.130;13.788;2023-05-16T15:14:19;23.60;90.40
15409;DHT22;7803;48.130;13.788;2023-05-16T15:17:20;23.60;90.40
15409;DHT22;7803;48.130;13.788;2023-05-16T15:20:22;23.60;90.40
15409;DHT22;7803;48.130;13.788;2023-05-16T15:23:25;23.60;90.40
15409;DHT22;7803;48.130;13.788;2023-05-16T15:26:29;23.60;90.30
15409;DHT22;7803;48.130;13.788;2023-05-16T15:29:32;23.60;90.30
15409;DHT22;7803;48.130;13.788;2023-05-16T15:32:34;23.60;90.30
15409;DHT22;7803;48.130;13.788;2023-05-16T15:35:36;23.60;90.30
15409;DHT22;7803;48.130;13.788;2023-05-16T15:38:38;23.60;90.30
15409;DHT22;7803;48.130;13.788;2023-05-16T15:41:45;23.60;90.30
15409;DHT22;7803;48.130;13.788;2023-05-16T15:44:47;23.60;90.20
15409;DHT22;7803;48.130;13.788;2023-05-16T15:47:49;23.60;90.20
15409;DHT22;7803;48.130;13.788;2023-05-16T15:50:51;23.60;90.30
15409;DHT22;7803;48.130;13.788;2023-05-16T15:53:53;23.60;90.40
15409;DHT22;7803;48.130;13.788;2023-05-16T15:56:57;23.60;90.50
15409;DHT22;7803;48.130;13.788;2023-05-16T15:59:59;23.60;90.50
15409;DHT22;7803;48.130;13.788;2023-05-16T16:03:00;23.60;90.40
15409;DHT22;7803;48.130;13.788;2023-05-16T16:06:03;23.60;90.50
15409;DHT22;7803;48.130;13.788;2023-05-16T16:09:06;23.60;90.50
15409;DHT22;7803;48.130;13.788;2023-05-16T16:12:09;23.60;90.60
15409;DHT22;7803;48.130;13.788;2023-05-16T16:15:11;23.60;90.60
15409;DHT22;7803;48.130;13.788;2023-05-16T16:18:13;23.60;90.70
15409;DHT22;7803;48.130;13.788;2023-05-16T16:21:15;23.60;90.70
15409;DHT22;7803;48.130;13.788;2023-05-16T16:24:17;23.60;90.80
15409;DHT22;7803;48.130;13.788;2023-05-16T16:27:22;23.70;90.80
15409;DHT22;7803;48.130;13.788;2023-05-16T16:30:24;23.60;90.80
15409;DHT22;7803;48.130;13.788;2023-05-16T16:33:26;23.70;90.70
15409;DHT22;7803;48.130;13.788;2023-05-16T16:36:28;23.70;90.70
15409;DHT22;7803;48.130;13.788;2023-05-16T16:39:31;23.70;90.60
15409;DHT22;7803;48.130;13.788;2023-05-16T16:42:34;23.70;90.60
15409;DHT22;7803;48.130;13.788;2023-05-16T16:45:38;23.70;90.60
15409;DHT22;7803;48.130;13.788;2023-05-16T16:48:40;23.70;90.60
15409;DHT22;7803;48.130;13.788;2023-05-16T16:51:42;23.70;90.60
15409;DHT22;7803;48.130;13.788;2023-05-16T16:54:45;23.70;90.60
15409;DHT22;7803;48.130;13.788;2023-05-16T16:57:48;23.70;90.50
15409;DHT22;7803;48.130;13.788;2023-05-16T17:00:50;23.70;90.70
15409;DHT22;7803;48.130;13.788;2023-05-16T17:03:52;23.70;90.60
15409;DHT22;7803;48.130;13.788;2023-05-16T17:06:54;23.70;90.50
15409;DHT22;7803;48.130;13.788;2023-05-16T17:09:57;23.70;90.40
15409;DHT22;7803;48.130;13.788;2023-05-16T17:13:01;23.70;89.30
15409;DHT22;7803;48.130;13.788;2023-05-16T17:16:08;23.70;87.70
15409;DHT22;7803;48.130;13.788;2023-05-16T17:19:10;23.70;88.30
15409;DHT22;7803;48.130;13.788;2023-05-16T17:22:12;23.70;89.10
15409;DHT22;7803;48.130;13.788;2023-05-16T17:25:15;23.70;89.80
15409;DHT22;7803;48.130;13.788;2023-05-16T17:28:18;23.70;90.10
15409;DHT22;7803;48.130;13.788;2023-05-16T17:31:20;23.70;90.30
15409;DHT22;7803;48.130;13.788;2023-05-16T17:34:22;23.70;90.50
15409;DHT22;7803;48.130;13.788;2023-05-16T17:37:24;23.70;90.70
15409;DHT22;7803;48.130;13.788;2023-05-16T17:40:26;23.70;90.80
15409;DHT22;7803;48.130;13.788;2023-05-16T17:43:29;23.70;90.80
15409;DHT22;7803;48.130;13.788;2023-05-16T17:46:31;23.70;90.90
15409;DHT22;7803;48.130;13.788;2023-05-16T17:49:33;23.70;91.00
15409;DHT22;7803;48.130;13.788;2023-05-16T17:52:36;23.70;91.00
15409;DHT22;7803;48.130;13.788;2023-05-16T17:55:39;23.70;91.40
15409;DHT22;7803;48.130;13.788;2023-05-16T17:58:42;23.80;91.50
15409;DHT22;7803;48.130;13.788;2023-05-16T18:01:45;23.70;91.40
15409;DHT22;7803;48.130;13.788;2023-05-16T18:04:47;23.70;91.50
15409;DHT22;7803;48.130;13.788;2023-05-16T18:07:49;23.70;91.70
15409;DHT22;7803;48.130;13.788;2023-05-16T18:10:52;23.70;91.70
15409;DHT22;7803;48.130;13.788;2023-05-16T18:13:56;23.70;91.90
15409;DHT22;7803;48.130;13.788;2023-05-16T18:16:58;23.80;92.20
15409;DHT22;7803;48.130;13.788;2023-05-16T18:20:00;23.80;92.30
15409;DHT22;7803;48.130;13.788;2023-05-16T18:23:08;23.80;92.40
15409;DHT22;7803;48.130;13.788;2023-05-16T18:26:11;23.80;92.40
15409;DHT22;7803;48.130;13.788;2023-05-16T18:29:15;23.80;92.50
15409;DHT22;7803;48.130;13.788;2023-05-16T18:32:17;23.80;92.50
15409;DHT22;7803;48.130;13.788;2023-05-16T18:35:18;23.80;92.50
15409;DHT22;7803;48.130;13.788;2023-05-16T18:38:20;23.80;92.40
15409;DHT22;7803;48.130;13.788;2023-05-16T18:41:22;23.80;92.50
15409;DHT22;7803;48.130;13.788;2023-05-16T18:44:26;23.80;92.50
15409;DHT22;7803;48.130;13.788;2023-05-16T18:47:28;23.80;92.50
15409;DHT22;7803;48.130;13.788;2023-05-16T18:50:30;23.70;92.50
15409;DHT22;7803;48.130;13.788;2023-05-16T18:53:32;23.80;92.50
15409;DHT22;7803;48.130;13.788;2023-05-16T18:56:35;23.70;92.50
15409;DHT22;7803;48.130;13.788;2023-05-16T18:59:38;23.80;92.40
15409;DHT22;7803;48.130;13.788;2023-05-16T19:02:41;23.70;92.40
15409;DHT22;7803;48.130;13.788;2023-05-16T19:05:42;23.70;92.40
15409;DHT22;7803;48.130;13.788;2023-05-16T19:08:44;23.70;92.40
15409;DHT22;7803;48.130;13.788;2023-05-16T19:11:47;23.70;92.40
15409;DHT22;7803;48.130;13.788;2023-05-16T19:14:50;23.70;93.80